createdAt,value
2023-02-22T00:02:25.861Z,90.83
2023-02-22T00:04:55.309Z,90.84
2023-02-22T00:07:24.439Z,90.61
2023-02-22T00:09:53.141Z,90.69
2023-02-22T00:12:21.927Z,90.50
2023-02-22T00:14:51.969Z,90.53
2023-02-22T00:17:21.286Z,90.96
2023-02-22T00:19:52.347Z,90.41
2023-02-22T00:22:21.398Z,89.98
2023-02-22T00:24:50.817Z,90.58
2023-02-22T00:27:19.603Z,90.52
2023-02-22T00:29:51.140Z,90.96
2023-02-22T00:32:19.927Z,90.80
2023-02-22T00:34:53.300Z,90.51
2023-02-22T00:37:22.354Z,90.89
2023-02-22T00:39:52.893Z,90.75
2023-02-22T00:42:22.104Z,90.85
2023-02-22T00:44:50.834Z,90.97
2023-02-22T00:47:19.485Z,90.89
2023-02-22T00:49:49.347Z,91.15
2023-02-22T00:52:17.999Z,90.85
2023-02-22T00:54:47.276Z,90.90
2023-02-22T00:57:18.424Z,91.39
2023-02-22T00:59:48.250Z,91.30
2023-02-22T01:02:19.205Z,91.00
2023-02-22T01:04:49.063Z,91.40
2023-02-22T01:07:17.894Z,91.43
2023-02-22T01:09:46.520Z,91.12
2023-02-22T01:12:16.803Z,91.12
2023-02-22T01:14:45.627Z,91.23
2023-02-22T01:17:14.161Z,90.85
2023-02-22T01:19:43.319Z,91.75
2023-02-22T01:22:12.133Z,91.23
2023-02-22T01:24:40.786Z,91.12
2023-02-22T01:27:09.599Z,91.27
2023-02-22T01:29:40.047Z,91.25
2023-02-22T01:32:08.931Z,91.09
2023-02-22T01:34:37.565Z,91.24
2023-02-22T01:37:07.282Z,91.18
2023-02-22T01:39:35.990Z,91.17
2023-02-22T01:42:04.856Z,91.69
2023-02-22T01:44:36.423Z,91.87
2023-02-22T01:47:07.428Z,91.48
2023-02-22T01:49:39.798Z,91.10
2023-02-22T01:52:12.232Z,91.44
2023-02-22T01:54:47.509Z,91.50
2023-02-22T01:57:24.488Z,91.30
2023-02-22T02:00:02.848Z,91.28
2023-02-22T02:02:52.023Z,91.41
2023-02-22T02:05:25.641Z,91.79
2023-02-22T02:07:54.952Z,91.42
2023-02-22T02:10:24.985Z,91.51
2023-02-22T02:12:54.814Z,91.14
2023-02-22T02:15:31.490Z,91.00
2023-02-22T02:18:04.661Z,91.27
2023-02-22T02:20:45.416Z,91.14
2023-02-22T02:23:47.464Z,90.57
2023-02-22T02:26:53.437Z,91.08
2023-02-22T02:29:42.076Z,90.67
2023-02-22T02:32:22.758Z,90.99
2023-02-22T02:35:02.851Z,90.38
2023-02-22T02:37:41.401Z,90.85
2023-02-22T02:40:26.320Z,90.51
2023-02-22T02:43:07.985Z,90.57
2023-02-22T02:46:06.511Z,90.05
2023-02-22T02:48:41.111Z,90.64
2023-02-22T02:51:15.259Z,90.16
2023-02-22T02:53:48.814Z,89.85
2023-02-22T02:56:18.818Z,89.92
2023-02-22T02:58:52.187Z,90.22
2023-02-22T03:01:23.907Z,89.92
2023-02-22T03:03:59.836Z,89.82
2023-02-22T03:06:50.364Z,89.49
2023-02-22T03:09:59.272Z,89.94
2023-02-22T03:12:39.271Z,89.51
2023-02-22T03:15:33.319Z,89.45
2023-02-22T03:18:11.410Z,89.02
2023-02-22T03:21:00.836Z,88.57
2023-02-22T03:23:48.767Z,88.60
2023-02-22T03:26:26.321Z,89.10
2023-02-22T03:28:59.568Z,89.11
2023-02-22T03:31:37.962Z,88.39
2023-02-22T03:34:14.945Z,88.38
2023-02-22T03:36:54.219Z,88.50
2023-02-22T03:39:31.549Z,88.18
2023-02-22T03:42:12.836Z,87.66
2023-02-22T03:44:44.423Z,86.96
2023-02-22T03:47:22.678Z,86.95
2023-02-22T03:50:07.630Z,86.65
2023-02-22T03:52:38.409Z,86.81
2023-02-22T03:55:14.097Z,86.75
2023-02-22T03:57:49.700Z,85.92
2023-02-22T04:00:27.413Z,85.76
2023-02-22T04:02:57.433Z,85.80
2023-02-22T04:05:26.947Z,85.39
2023-02-22T04:07:58.578Z,85.52
2023-02-22T04:10:28.891Z,85.25
2023-02-22T04:12:57.544Z,84.77
2023-02-22T04:15:26.668Z,84.87
2023-02-22T04:18:01.551Z,84.34
2023-02-22T04:20:32.496Z,84.27
2023-02-22T04:23:06.704Z,83.80
2023-02-22T04:25:38.903Z,84.16
2023-02-22T04:28:12.940Z,83.78
2023-02-22T04:31:10.688Z,83.92
2023-02-22T04:33:39.801Z,82.91
2023-02-22T04:36:11.528Z,83.29
2023-02-22T04:38:40.908Z,83.27
2023-02-22T04:41:09.619Z,82.65
2023-02-22T04:43:38.395Z,82.79
2023-02-22T04:46:17.184Z,82.31
2023-02-22T04:48:49.204Z,82.59
2023-02-22T04:51:22.059Z,82.25
2023-02-22T04:54:10.803Z,82.07
2023-02-22T04:56:43.338Z,81.63
2023-02-22T04:59:12.030Z,81.33
2023-02-22T05:01:44.740Z,81.17
2023-02-22T05:04:13.473Z,81.13
2023-02-22T05:06:42.850Z,80.90
2023-02-22T05:09:11.572Z,80.45
2023-02-22T05:11:40.822Z,80.56
2023-02-22T05:14:09.683Z,80.43
2023-02-22T05:16:38.551Z,80.04
2023-02-22T05:19:07.308Z,79.95
2023-02-22T05:21:35.766Z,79.72
2023-02-22T05:24:04.476Z,79.59
2023-02-22T05:26:33.661Z,79.53
2023-02-22T05:29:02.512Z,79.51
2023-02-22T05:31:31.173Z,79.04
2023-02-22T05:34:01.919Z,79.07
2023-02-22T05:36:32.025Z,79.14
2023-02-22T05:39:00.721Z,78.88
2023-02-22T05:41:29.610Z,78.77
2023-02-22T05:43:58.428Z,78.11
2023-02-22T05:46:27.131Z,78.29
2023-02-22T05:48:56.220Z,78.17
2023-02-22T05:51:25.015Z,77.89
2023-02-22T05:53:53.807Z,77.35
2023-02-22T05:56:27.991Z,76.88
2023-02-22T05:58:59.185Z,77.09
2023-02-22T06:01:27.948Z,76.76
2023-02-22T06:03:59.702Z,76.91
2023-02-22T06:06:28.085Z,76.47
2023-02-22T06:08:56.727Z,76.14
2023-02-22T06:11:25.449Z,76.08
2023-02-22T06:13:54.534Z,76.05
2023-02-22T06:16:24.360Z,75.81
2023-02-22T06:18:52.980Z,75.59
2023-02-22T06:21:21.811Z,75.49
2023-02-22T06:23:53.067Z,75.29
2023-02-22T06:26:26.374Z,74.58
2023-02-22T06:28:55.353Z,74.93
2023-02-22T06:31:24.713Z,74.57
2023-02-22T06:33:54.030Z,74.84
2023-02-22T06:36:22.935Z,74.13
2023-02-22T06:38:51.734Z,74.27
2023-02-22T06:41:20.481Z,74.13
2023-02-22T06:43:49.573Z,74.06
2023-02-22T06:46:18.188Z,73.84
2023-02-22T06:48:46.969Z,74.02
2023-02-22T06:51:16.143Z,74.15
2023-02-22T06:53:45.918Z,73.46
2023-02-22T06:56:15.440Z,73.42
2023-02-22T06:58:44.301Z,73.43
2023-02-22T07:01:13.513Z,73.12
2023-02-22T07:03:43.742Z,73.59
2023-02-22T07:06:13.099Z,72.69
2023-02-22T07:08:41.947Z,72.80
2023-02-22T07:11:10.691Z,72.39
2023-02-22T07:13:39.416Z,72.09
2023-02-22T07:16:08.176Z,72.56
2023-02-22T07:18:36.941Z,72.25
2023-02-22T07:21:05.985Z,72.16
2023-02-22T07:23:34.833Z,71.53
2023-02-22T07:26:05.878Z,71.85
2023-02-22T07:28:34.648Z,71.94
2023-02-22T07:31:03.439Z,71.25
2023-02-22T07:33:32.237Z,71.20
2023-02-22T07:36:01.122Z,71.39
2023-02-22T07:38:29.908Z,71.51
2023-02-22T07:40:59.127Z,71.12
2023-02-22T07:43:32.333Z,71.91
2023-02-22T07:46:03.617Z,71.40
2023-02-22T07:48:32.996Z,71.39
2023-02-22T07:51:01.868Z,71.44
2023-02-22T07:53:34.212Z,71.40
2023-02-22T07:56:06.277Z,70.97
2023-02-22T07:58:35.973Z,70.90
2023-02-22T08:01:05.279Z,70.53
2023-02-22T08:03:37.117Z,70.74
2023-02-22T08:06:08.364Z,69.94
2023-02-22T08:08:37.364Z,69.91
2023-02-22T08:11:06.821Z,70.36
2023-02-22T08:13:37.901Z,70.28
2023-02-22T08:16:06.997Z,69.95
2023-02-22T08:18:36.123Z,69.56
2023-02-22T08:21:05.258Z,69.44
2023-02-22T08:23:34.119Z,69.45
2023-02-22T08:26:10.798Z,69.19
2023-02-22T08:28:39.443Z,69.20
2023-02-22T08:31:09.604Z,69.07
2023-02-22T08:33:38.521Z,69.30
2023-02-22T08:36:07.518Z,68.77
2023-02-22T08:38:36.367Z,68.84
2023-02-22T08:41:05.317Z,69.07
2023-02-22T08:43:33.906Z,69.22
2023-02-22T08:46:02.841Z,68.71
2023-02-22T08:48:31.609Z,68.84
2023-02-22T08:51:00.352Z,69.01
2023-02-22T08:53:29.207Z,69.65
2023-02-22T08:55:58.177Z,69.47
2023-02-22T08:58:26.955Z,69.59
2023-02-22T09:00:55.857Z,69.76
2023-02-22T09:03:24.569Z,70.07
2023-02-22T09:05:53.543Z,70.01
2023-02-22T09:08:23.096Z,70.00
2023-02-22T09:10:52.377Z,70.21
2023-02-22T09:13:21.182Z,70.38
2023-02-22T09:15:50.024Z,70.14
2023-02-22T09:18:19.735Z,70.52
2023-02-22T09:20:48.715Z,70.66
2023-02-22T09:23:17.299Z,70.02
2023-02-22T09:25:46.155Z,70.25
2023-02-22T09:28:15.342Z,70.30
2023-02-22T09:30:44.609Z,70.57
2023-02-22T09:33:18.525Z,70.22
2023-02-22T09:35:50.547Z,70.50
2023-02-22T09:38:23.866Z,69.89
2023-02-22T09:41:15.508Z,70.61
2023-02-22T09:44:23.915Z,70.60
2023-02-22T09:46:55.316Z,70.52
2023-02-22T09:49:40.354Z,70.41
2023-02-22T09:52:28.553Z,70.50
2023-02-22T09:55:09.025Z,70.82
2023-02-22T09:57:45.261Z,70.53
2023-02-22T10:00:23.147Z,70.71
2023-02-22T10:03:21.297Z,70.84
2023-02-22T10:06:03.144Z,71.14
2023-02-22T10:08:34.856Z,71.40
2023-02-22T10:11:20.843Z,71.17
2023-02-22T10:14:08.162Z,71.22
2023-02-22T10:16:37.810Z,71.40
2023-02-22T10:19:18.381Z,70.68
2023-02-22T10:21:54.259Z,70.78
2023-02-22T10:24:40.365Z,71.02
2023-02-22T10:27:19.922Z,70.81
2023-02-22T10:29:55.239Z,70.89
2023-02-22T10:32:30.754Z,70.67
2023-02-22T10:35:01.772Z,70.73
2023-02-22T10:37:33.079Z,70.51
2023-02-22T10:40:14.203Z,70.49
2023-02-22T10:42:43.003Z,70.59
2023-02-22T10:45:23.783Z,70.51
2023-02-22T10:47:56.742Z,70.66
2023-02-22T10:50:30.547Z,70.62
2023-02-22T10:52:59.408Z,70.67
2023-02-22T10:55:28.279Z,70.84
2023-02-22T10:58:07.745Z,70.87
2023-02-22T11:00:39.830Z,71.10
2023-02-22T11:03:24.785Z,71.21
2023-02-22T11:05:53.475Z,71.21
2023-02-22T11:08:22.383Z,71.26
2023-02-22T11:10:54.124Z,71.90
2023-02-22T11:13:40.920Z,72.12
2023-02-22T11:16:30.083Z,72.19
2023-02-22T11:19:12.897Z,72.44
2023-02-22T11:21:41.768Z,72.56
2023-02-22T11:24:13.468Z,72.88
2023-02-22T11:26:50.138Z,72.99
2023-02-22T11:29:33.397Z,73.09
2023-02-22T11:32:25.226Z,73.25
2023-02-22T11:35:08.331Z,73.78
2023-02-22T11:37:48.886Z,73.71
2023-02-22T11:40:22.901Z,74.02
2023-02-22T11:43:12.906Z,73.84
2023-02-22T11:46:08.952Z,74.25
2023-02-22T11:48:42.563Z,74.47
2023-02-22T11:51:25.256Z,74.78
2023-02-22T11:54:26.116Z,75.53
2023-02-22T11:57:17.106Z,75.16
2023-02-22T12:00:12.933Z,75.60
2023-02-22T12:03:12.989Z,75.85
2023-02-22T12:06:07.976Z,76.18
2023-02-22T12:08:45.666Z,76.11
2023-02-22T12:11:40.870Z,76.35
2023-02-22T12:14:26.055Z,76.42
2023-02-22T12:16:55.595Z,76.95
2023-02-22T12:19:53.464Z,76.83
2023-02-22T12:22:36.269Z,76.74
2023-02-22T12:25:35.144Z,77.13
2023-02-22T12:28:31.457Z,76.91
2023-02-22T12:31:25.035Z,77.02
2023-02-22T12:34:52.257Z,77.21
2023-02-22T12:37:30.032Z,77.28
2023-02-22T12:40:24.091Z,76.88
2023-02-22T12:43:01.988Z,76.96
2023-02-22T12:46:12.357Z,77.09
2023-02-22T12:49:02.188Z,76.66
2023-02-22T12:51:46.112Z,76.95
2023-02-22T12:54:51.917Z,76.67
2023-02-22T12:57:48.830Z,76.77
2023-02-22T13:00:29.400Z,76.60
2023-02-22T13:03:29.258Z,77.06
2023-02-22T13:06:34.857Z,76.89
2023-02-22T13:09:21.599Z,76.37
2023-02-22T13:11:50.595Z,76.34
2023-02-22T13:14:30.881Z,76.69
2023-02-22T13:17:15.792Z,76.88
2023-02-22T13:20:19.170Z,76.68
2023-02-22T13:23:16.108Z,76.78
2023-02-22T13:26:08.817Z,77.11
2023-02-22T13:28:41.037Z,76.70
2023-02-22T13:31:30.476Z,76.72
2023-02-22T13:34:31.462Z,76.85
2023-02-22T13:37:18.767Z,77.07
2023-02-22T13:40:03.967Z,77.44
2023-02-22T13:42:38.180Z,77.49
2023-02-22T13:45:37.326Z,77.36
2023-02-22T13:48:26.700Z,77.00
2023-02-22T13:51:33.522Z,77.92
2023-02-22T13:54:14.752Z,77.44
2023-02-22T13:56:46.254Z,77.58
2023-02-22T13:59:48.248Z,78.18
2023-02-22T14:03:03.041Z,77.92
2023-02-22T14:05:38.014Z,77.72
2023-02-22T14:08:07.460Z,78.28
2023-02-22T14:10:56.296Z,77.84
2023-02-22T14:13:30.001Z,77.69
2023-02-22T14:16:02.076Z,77.67
2023-02-22T14:18:37.125Z,77.68
2023-02-22T14:21:08.749Z,77.59
2023-02-22T14:23:43.203Z,77.69
2023-02-22T14:26:31.669Z,78.14
2023-02-22T14:29:03.665Z,77.94
2023-02-22T14:31:45.092Z,77.79
2023-02-22T14:34:32.566Z,77.62
2023-02-22T14:37:05.945Z,77.93
2023-02-22T14:39:51.138Z,77.69
2023-02-22T14:42:26.330Z,78.11
2023-02-22T14:45:11.313Z,77.89
2023-02-22T14:48:04.860Z,77.87
2023-02-22T14:50:45.016Z,78.34
2023-02-22T14:53:14.046Z,78.65
2023-02-22T14:56:21.764Z,79.29
2023-02-22T14:59:00.923Z,79.33
2023-02-22T15:01:52.676Z,79.17
2023-02-22T15:04:31.612Z,79.56
2023-02-22T15:07:08.832Z,79.41
2023-02-22T15:09:38.131Z,78.90
2023-02-22T15:12:08.648Z,78.88
2023-02-22T15:14:42.580Z,79.06
2023-02-22T15:17:25.637Z,79.38
2023-02-22T15:19:55.791Z,78.67
2023-02-22T15:22:28.086Z,79.31
2023-02-22T15:25:08.367Z,79.27
2023-02-22T15:27:38.683Z,79.58
2023-02-22T15:30:19.496Z,79.50
2023-02-22T15:33:02.968Z,79.23
2023-02-22T15:35:34.304Z,79.26
2023-02-22T15:38:11.801Z,78.77
2023-02-22T15:40:43.955Z,79.32
2023-02-22T15:43:40.635Z,79.38
2023-02-22T15:46:10.210Z,79.58
2023-02-22T15:48:41.983Z,79.33
2023-02-22T15:51:15.250Z,79.45
2023-02-22T15:53:52.348Z,80.00
2023-02-22T15:56:30.743Z,79.77
2023-02-22T15:59:13.979Z,80.04
2023-02-22T16:01:46.825Z,79.83
2023-02-22T16:04:24.466Z,79.93
2023-02-22T16:07:03.600Z,79.81
2023-02-22T16:09:33.862Z,79.87
2023-02-22T16:12:29.106Z,79.86
2023-02-22T16:14:58.885Z,79.88
2023-02-22T16:17:42.699Z,80.12
2023-02-22T16:20:18.464Z,80.05
2023-02-22T16:23:01.383Z,80.35
2023-02-22T16:25:43.557Z,80.56
2023-02-22T16:28:34.601Z,80.52
2023-02-22T16:31:04.539Z,80.35
2023-02-22T16:33:34.500Z,80.70
2023-02-22T16:36:08.817Z,80.92
2023-02-22T16:38:39.926Z,81.06
2023-02-22T16:41:09.025Z,81.22
2023-02-22T16:43:38.126Z,80.91
2023-02-22T16:46:08.171Z,81.41
2023-02-22T16:48:39.942Z,81.42
2023-02-22T16:51:20.079Z,81.42
2023-02-22T16:53:50.026Z,81.03
2023-02-22T16:56:21.083Z,80.99
2023-02-22T16:58:51.491Z,81.30
2023-02-22T17:01:21.234Z,81.38
2023-02-22T17:03:51.610Z,81.34
2023-02-22T17:06:20.789Z,81.71
2023-02-22T17:08:52.540Z,81.37
2023-02-22T17:11:23.502Z,81.68
2023-02-22T17:13:57.969Z,82.24
2023-02-22T17:16:28.234Z,81.28
2023-02-22T17:18:56.996Z,81.75
2023-02-22T17:21:25.767Z,82.29
2023-02-22T17:23:54.494Z,82.73
2023-02-22T17:26:24.293Z,82.96
2023-02-22T17:28:53.058Z,83.66
2023-02-22T17:31:31.496Z,84.09
2023-02-22T17:34:03.672Z,84.96
2023-02-22T17:36:34.118Z,85.52
2023-02-22T17:39:04.094Z,85.99
2023-02-22T17:41:33.282Z,86.67
2023-02-22T17:44:02.061Z,86.83
2023-02-22T17:46:30.912Z,86.96
2023-02-22T17:48:59.706Z,87.06
2023-02-22T17:51:28.423Z,87.69
2023-02-22T17:53:57.052Z,87.38
2023-02-22T17:56:26.356Z,87.63
2023-02-22T17:58:56.138Z,88.27
2023-02-22T18:01:30.841Z,87.57
2023-02-22T18:04:02.298Z,87.42
2023-02-22T18:06:33.390Z,88.04
2023-02-22T18:09:02.458Z,87.83
2023-02-22T18:11:33.278Z,87.98
2023-02-22T18:14:01.901Z,88.48
2023-02-22T18:16:30.756Z,88.67
2023-02-22T18:19:02.224Z,89.24
2023-02-22T18:21:31.210Z,88.99
2023-02-22T18:24:00.440Z,89.41
2023-02-22T18:26:29.694Z,88.87
2023-02-22T18:28:58.558Z,89.33
2023-02-22T18:31:27.513Z,89.98
2023-02-22T18:33:58.271Z,90.15
2023-02-22T18:36:27.457Z,89.91
2023-02-22T18:38:56.550Z,90.96
2023-02-22T18:41:26.063Z,90.78
2023-02-22T18:43:58.346Z,90.59
2023-02-22T18:46:27.310Z,90.88
2023-02-22T18:48:57.473Z,91.55
2023-02-22T18:51:26.878Z,91.40
2023-02-22T18:54:00.929Z,90.88
2023-02-22T18:56:32.670Z,91.37
2023-02-22T18:59:04.282Z,91.49
2023-02-22T19:01:39.472Z,91.20
2023-02-22T19:04:10.772Z,91.62
2023-02-22T19:06:40.063Z,91.15
2023-02-22T19:09:09.330Z,91.53
2023-02-22T19:11:40.922Z,91.84
2023-02-22T19:14:10.405Z,91.94
2023-02-22T19:16:39.873Z,92.21
2023-02-22T19:19:08.593Z,91.93
2023-02-22T19:21:38.331Z,92.43
2023-02-22T19:24:10.010Z,92.26
2023-02-22T19:26:40.622Z,92.15
2023-02-22T19:29:09.271Z,92.14
2023-02-22T19:31:40.076Z,92.58
2023-02-22T19:34:12.090Z,92.40
2023-02-22T19:36:48.347Z,92.12
2023-02-22T19:41:49.778Z,92.52
2023-02-22T19:44:18.390Z,92.66
2023-02-22T19:46:49.535Z,92.37
2023-02-22T19:49:18.545Z,92.50
2023-02-22T19:51:47.324Z,92.79
2023-02-22T19:54:26.287Z,92.68
2023-02-22T19:56:55.047Z,92.99
2023-02-22T19:59:27.274Z,92.70
2023-02-22T20:01:57.344Z,92.74
2023-02-22T20:04:26.757Z,93.15
2023-02-22T20:06:55.905Z,93.02
2023-02-22T20:09:30.520Z,93.01
2023-02-22T20:11:59.371Z,93.27
2023-02-22T20:14:29.092Z,93.17
2023-02-22T20:16:59.386Z,92.73
2023-02-22T20:19:29.208Z,92.64
2023-02-22T20:21:58.367Z,92.85
2023-02-22T20:24:28.379Z,93.00
2023-02-22T20:26:58.885Z,93.45
2023-02-22T20:29:30.526Z,93.49
2023-02-22T20:32:01.536Z,93.12
2023-02-22T20:34:34.407Z,93.15
2023-02-22T20:37:03.807Z,93.27
2023-02-22T20:39:32.676Z,93.33
2023-02-22T20:42:01.406Z,93.33
2023-02-22T20:44:30.829Z,93.71
2023-02-22T20:46:59.634Z,93.61
2023-02-22T20:49:28.393Z,93.82
2023-02-22T20:51:57.245Z,93.61
2023-02-22T20:54:25.990Z,93.80
2023-02-22T20:56:54.745Z,93.99
2023-02-22T20:59:23.435Z,93.81
2023-02-22T21:01:53.768Z,93.97
2023-02-22T21:04:25.670Z,93.76
2023-02-22T21:06:54.394Z,93.67
2023-02-22T21:09:23.260Z,93.52
2023-02-22T21:11:52.048Z,93.46
2023-02-22T21:14:21.677Z,93.12
2023-02-22T21:16:52.231Z,92.96
2023-02-22T21:19:27.556Z,93.01
2023-02-22T21:22:00.310Z,92.70
2023-02-22T21:24:30.009Z,92.91
2023-02-22T21:26:59.399Z,92.68
2023-02-22T21:29:29.439Z,92.59
2023-02-22T21:31:58.303Z,92.64
2023-02-22T21:34:27.151Z,92.89
2023-02-22T21:36:56.149Z,92.64
2023-02-22T21:39:28.941Z,92.72
2023-02-22T21:42:01.415Z,92.62
2023-02-22T21:44:30.555Z,92.63
2023-02-22T21:46:59.416Z,92.54
2023-02-22T21:49:29.057Z,92.54
2023-02-22T21:51:58.298Z,92.40
2023-02-22T21:54:28.844Z,92.27
2023-02-22T21:56:57.426Z,92.37
2023-02-22T21:59:26.254Z,92.31
2023-02-22T22:01:56.759Z,92.16
2023-02-22T22:04:30.819Z,91.67
2023-02-22T22:07:02.144Z,91.97
2023-02-22T22:09:36.192Z,91.69
2023-02-22T22:12:11.282Z,91.41
2023-02-22T22:14:41.035Z,91.46
2023-02-22T22:17:12.829Z,91.50
2023-02-22T22:19:42.320Z,91.48
2023-02-22T22:22:11.378Z,91.45
2023-02-22T22:24:42.492Z,91.28
2023-02-22T22:27:13.648Z,91.05
2023-02-22T22:29:44.166Z,90.44
2023-02-22T22:32:13.121Z,90.10
2023-02-22T22:34:43.382Z,88.86
2023-02-22T22:37:12.074Z,88.81
2023-02-22T22:39:40.937Z,87.42
2023-02-22T22:42:10.110Z,86.01
2023-02-22T22:44:42.751Z,85.77
2023-02-22T22:47:14.657Z,84.84
2023-02-22T22:49:43.426Z,83.26
2023-02-22T22:52:19.754Z,83.13
2023-02-22T22:54:48.446Z,82.40
2023-02-22T22:57:17.757Z,82.57
2023-02-22T22:59:46.593Z,81.70
2023-02-22T23:02:15.295Z,82.03
2023-02-22T23:04:44.086Z,81.91
2023-02-22T23:07:14.080Z,82.06
2023-02-22T23:09:42.858Z,81.13
2023-02-22T23:12:31.712Z,81.18
2023-02-22T23:15:00.528Z,81.06
2023-02-22T23:17:34.885Z,80.87
2023-02-22T23:20:11.901Z,80.54
2023-02-22T23:22:44.436Z,80.78
2023-02-22T23:25:13.131Z,80.27
2023-02-22T23:27:41.994Z,80.82
2023-02-22T23:30:15.788Z,80.51
2023-02-22T23:32:47.137Z,80.93
2023-02-22T23:35:16.886Z,80.40
2023-02-22T23:37:47.069Z,80.77
2023-02-22T23:40:19.441Z,80.99
2023-02-22T23:42:50.113Z,81.21
2023-02-22T23:45:24.642Z,81.10
2023-02-22T23:47:55.785Z,81.10
2023-02-22T23:50:29.906Z,80.86
2023-02-22T23:53:00.976Z,81.26
2023-02-22T23:55:32.388Z,81.36
2023-02-22T23:58:01.195Z,81.49
